aviador You're here:

KDET Decoded Metar

DETROIT in MI, USA
Report Time2017-12-15 13:53:00
UTC Time2017-12-15 14:11:45
Flight Rules vfr VFR
Wind220° at 13 Gusting to 21 kt
W.Decomp.*RWY 25: 11.8 kt HW 5.5 kt LCW
RWY 15: 3.4 kt HW 12.6 kt RCW
W.Rank220° ranks 6
Current wind is above 220° avg. (9.1)
Visibility9999 m
Phenomena:N/A
Clouds:Broken 037 Hf
Overcast 060 Hf
Expected CloudBase > 2,000 ft AGL from Temp-Dew spread
Ceiling3,700 ft
Temp-6°C (ISA -20)
Dew Point-11°C (68% RH)
AAT-13.8°C
QNH1012 hPa
Density Alt-1,749 ft
Elevation623 ft
Report Wrong Elevation
Raw Report
METAR KDET 151353Z 22013G21KT 10SM BKN037 OVC060 M06/M11 A2989 RMK
AO2 SLP135 T10561111=

Extra information for KDET:More info

Metar Taf Metar & Taf Last 4 Metars F.Rules Stats Wind Profile Meteogram Temp Stats Airport Information Weather charts Add Link Nearby VenuesMetar ALERT Operation Metar Decoded Social comments

AIRNAV info for KDET